createdAt,value
2017-09-10T00:01:52.947Z,22.42
2017-09-10T00:03:58.638Z,22.22
2017-09-10T00:06:04.903Z,22.26
2017-09-10T00:08:11.999Z,22.43
2017-09-10T00:10:17.544Z,22.29
2017-09-10T00:12:23.438Z,22.41
2017-09-10T00:14:30.164Z,22.49
2017-09-10T00:16:39.136Z,22.58
2017-09-10T00:18:46.478Z,22.37
2017-09-10T00:20:51.962Z,22.11
2017-09-10T00:22:57.475Z,22.07
2017-09-10T00:25:03.465Z,22.00
2017-09-10T00:27:11.429Z,22.02
2017-09-10T00:29:17.003Z,21.86
2017-09-10T00:31:22.832Z,21.78
2017-09-10T00:33:29.836Z,21.96
2017-09-10T00:35:37.678Z,22.03
2017-09-10T00:37:45.331Z,21.91
2017-09-10T00:39:55.505Z,22.00
2017-09-10T00:42:01.284Z,21.66
2017-09-10T00:44:07.272Z,21.86
2017-09-10T00:46:14.946Z,21.94
2017-09-10T00:48:20.476Z,22.02
2017-09-10T00:50:25.852Z,21.91
2017-09-10T00:52:32.870Z,21.80
2017-09-10T00:54:40.296Z,21.81
2017-09-10T00:56:55.633Z,22.08
2017-09-10T00:59:01.974Z,22.07
2017-09-10T01:01:08.410Z,22.19
2017-09-10T01:03:20.418Z,22.02
2017-09-10T01:05:26.800Z,22.30
2017-09-10T01:07:34.548Z,22.40
2017-09-10T01:09:41.311Z,22.24
2017-09-10T01:11:47.879Z,22.29
2017-09-10T01:13:55.574Z,22.14
2017-09-10T01:16:01.827Z,21.90
2017-09-10T01:18:07.717Z,22.08
2017-09-10T01:20:17.598Z,22.10
2017-09-10T01:22:23.147Z,22.31
2017-09-10T01:24:33.393Z,22.35
2017-09-10T01:26:41.538Z,22.28
2017-09-10T01:28:48.387Z,22.49
2017-09-10T01:30:55.836Z,22.54
2017-09-10T01:33:01.611Z,22.25
2017-09-10T01:35:07.492Z,22.40
2017-09-10T01:37:15.876Z,22.45
2017-09-10T01:39:22.060Z,22.48
2017-09-10T01:41:28.595Z,22.35
2017-09-10T01:43:35.961Z,22.40
2017-09-10T01:45:42.474Z,22.58
2017-09-10T01:47:49.399Z,22.44
2017-09-10T01:49:55.469Z,22.37
2017-09-10T01:52:01.577Z,22.24
2017-09-10T01:54:07.418Z,22.46
2017-09-10T01:56:15.391Z,22.54
2017-09-10T01:58:21.850Z,22.60
2017-09-10T02:00:28.265Z,22.66
2017-09-10T02:02:35.373Z,22.59
2017-09-10T02:04:43.469Z,22.51
2017-09-10T02:06:51.596Z,22.56
2017-09-10T02:08:57.737Z,22.48
2017-09-10T02:11:03.619Z,22.60
2017-09-10T02:13:11.268Z,22.62
2017-09-10T02:15:18.096Z,22.57
2017-09-10T02:17:24.088Z,22.67
2017-09-10T02:19:31.302Z,22.55
2017-09-10T02:21:39.063Z,22.65
2017-09-10T02:23:45.668Z,22.66
2017-09-10T02:25:53.664Z,22.40
2017-09-10T02:28:02.734Z,22.54
2017-09-10T02:30:08.906Z,22.65
2017-09-10T02:32:14.902Z,22.58
2017-09-10T02:34:23.113Z,22.63
2017-09-10T02:36:31.473Z,22.47
2017-09-10T02:38:39.941Z,22.48
2017-09-10T02:40:49.947Z,22.38
2017-09-10T02:42:56.399Z,22.20
2017-09-10T02:45:02.978Z,21.87
2017-09-10T02:47:09.238Z,21.56
2017-09-10T02:49:18.172Z,22.17
2017-09-10T02:51:24.477Z,22.53
2017-09-10T02:53:33.425Z,22.62
2017-09-10T02:55:41.701Z,22.68
2017-09-10T02:57:51.104Z,22.66
2017-09-10T02:59:58.056Z,22.56
2017-09-10T03:02:05.887Z,22.29
2017-09-10T03:04:15.706Z,22.47
2017-09-10T03:06:21.934Z,22.38
2017-09-10T03:08:28.647Z,22.48
2017-09-10T03:10:37.224Z,22.34
2017-09-10T03:12:45.064Z,22.04
2017-09-10T03:14:53.364Z,21.84
2017-09-10T03:16:59.315Z,21.80
2017-09-10T03:19:06.155Z,21.94
2017-09-10T03:21:13.839Z,22.12
2017-09-10T03:23:20.292Z,22.36
2017-09-10T03:25:26.671Z,22.28
2017-09-10T03:27:34.030Z,22.35
2017-09-10T03:29:42.820Z,22.29
2017-09-10T03:31:50.897Z,22.20
2017-09-10T03:33:59.440Z,22.32
2017-09-10T03:36:06.037Z,21.96
2017-09-10T03:38:14.590Z,22.05
2017-09-10T03:40:20.673Z,22.35
2017-09-10T03:42:27.264Z,22.52
2017-09-10T03:44:34.915Z,22.57
2017-09-10T03:46:41.097Z,22.49
2017-09-10T03:48:48.225Z,22.63
2017-09-10T03:50:54.129Z,22.64
2017-09-10T03:53:00.444Z,22.55
2017-09-10T03:55:06.196Z,22.23
2017-09-10T03:57:14.704Z,21.91
2017-09-10T03:59:20.611Z,21.85
2017-09-10T04:01:26.210Z,21.92
2017-09-10T04:03:32.478Z,22.15
2017-09-10T04:05:39.666Z,22.00
2017-09-10T04:07:49.832Z,22.07
2017-09-10T04:09:56.644Z,21.85
2017-09-10T04:12:02.881Z,22.09
2017-09-10T04:14:10.820Z,22.24
2017-09-10T04:16:17.374Z,22.09
2017-09-10T04:18:23.483Z,22.07
2017-09-10T04:20:29.772Z,22.27
2017-09-10T04:22:36.999Z,21.97
2017-09-10T04:24:44.631Z,22.07
2017-09-10T04:26:52.756Z,21.80
2017-09-10T04:28:59.319Z,21.78
2017-09-10T04:31:05.778Z,21.91
2017-09-10T04:33:13.549Z,22.04
2017-09-10T04:35:19.776Z,22.08
2017-09-10T04:37:26.303Z,22.03
2017-09-10T04:39:33.319Z,21.88
2017-09-10T04:41:40.964Z,22.15
2017-09-10T04:43:50.324Z,22.35
2017-09-10T04:45:59.571Z,22.39
2017-09-10T04:48:09.276Z,22.23
2017-09-10T04:50:17.706Z,22.05
2017-09-10T04:52:24.189Z,22.07
2017-09-10T04:54:30.348Z,22.02
2017-09-10T04:56:37.505Z,21.91
2017-09-10T04:58:43.908Z,22.05
2017-09-10T05:00:50.412Z,21.91
2017-09-10T05:02:56.691Z,22.00
2017-09-10T05:05:02.889Z,21.87
2017-09-10T05:07:09.097Z,22.05
2017-09-10T05:09:17.692Z,21.88
2017-09-10T05:11:27.036Z,21.71
2017-09-10T05:13:35.571Z,21.62
2017-09-10T05:15:44.919Z,21.54
2017-09-10T05:17:54.082Z,21.55
2017-09-10T05:20:00.334Z,21.76
2017-09-10T05:22:06.443Z,22.13
2017-09-10T05:24:15.265Z,22.15
2017-09-10T05:26:22.119Z,22.36
2017-09-10T05:28:29.125Z,22.62
2017-09-10T05:30:37.054Z,22.39
2017-09-10T05:32:44.185Z,22.45
2017-09-10T05:34:51.842Z,22.42
2017-09-10T05:36:57.921Z,22.43
2017-09-10T05:39:04.202Z,22.52
2017-09-10T05:41:12.598Z,22.71
2017-09-10T05:43:18.181Z,22.86
2017-09-10T05:45:24.538Z,22.92
2017-09-10T05:47:33.416Z,22.85
2017-09-10T05:49:41.422Z,23.00
2017-09-10T05:51:49.013Z,22.93
2017-09-10T05:53:55.681Z,23.04
2017-09-10T05:56:02.224Z,22.97
2017-09-10T05:58:09.133Z,22.68
2017-09-10T06:00:18.004Z,22.49
2017-09-10T06:02:24.666Z,22.45
2017-09-10T06:04:32.643Z,22.60
2017-09-10T06:06:43.537Z,22.66
2017-09-10T06:08:51.128Z,22.49
2017-09-10T06:10:57.493Z,22.58
2017-09-10T06:13:03.791Z,22.68
2017-09-10T06:15:11.545Z,22.86
2017-09-10T06:17:18.337Z,22.92
2017-09-10T06:19:24.686Z,22.70
2017-09-10T06:21:31.804Z,22.73
2017-09-10T06:23:41.143Z,23.05
2017-09-10T06:25:49.443Z,22.72
2017-09-10T06:27:56.646Z,22.97
2017-09-10T06:30:03.274Z,22.90
2017-09-10T06:32:11.169Z,22.68
2017-09-10T06:34:17.261Z,22.54
2017-09-10T06:36:23.524Z,22.37
2017-09-10T06:38:31.863Z,22.29
2017-09-10T06:40:39.909Z,22.38
2017-09-10T06:42:48.142Z,22.63
2017-09-10T06:44:54.426Z,22.16
2017-09-10T06:47:00.735Z,21.80
2017-09-10T06:49:06.582Z,21.79
2017-09-10T06:51:14.604Z,21.70
2017-09-10T06:53:20.469Z,21.76
2017-09-10T06:55:26.288Z,21.81
2017-09-10T06:57:33.357Z,21.76
2017-09-10T06:59:40.498Z,21.79
2017-09-10T07:01:50.036Z,21.92
2017-09-10T07:03:55.586Z,22.31
2017-09-10T07:06:01.892Z,22.45
2017-09-10T07:08:08.357Z,22.20
2017-09-10T07:10:16.798Z,22.20
2017-09-10T07:12:23.399Z,22.41
2017-09-10T07:14:29.736Z,22.46
2017-09-10T07:16:37.026Z,22.36
2017-09-10T07:18:44.222Z,22.37
2017-09-10T07:20:49.874Z,22.12
2017-09-10T07:23:04.925Z,22.07
2017-09-10T07:25:14.162Z,22.19
2017-09-10T07:27:19.728Z,22.06
2017-09-10T07:29:48.580Z,22.12
2017-09-10T07:31:56.784Z,22.32
2017-09-10T07:34:12.352Z,22.03
2017-09-10T07:36:19.623Z,22.00
2017-09-10T07:38:28.069Z,22.03
2017-09-10T07:40:36.757Z,21.98
2017-09-10T07:42:50.039Z,22.34
2017-09-10T07:44:56.398Z,21.72
2017-09-10T07:47:02.249Z,22.17
2017-09-10T07:49:09.073Z,22.38
2017-09-10T07:51:20.028Z,22.45
2017-09-10T07:53:25.877Z,22.44
2017-09-10T07:55:34.229Z,22.47
2017-09-10T07:57:41.943Z,22.50
2017-09-10T07:59:50.865Z,22.28
2017-09-10T08:01:57.753Z,22.24
2017-09-10T08:04:03.281Z,22.09
2017-09-10T08:06:08.914Z,22.08
2017-09-10T08:08:21.995Z,22.29
2017-09-10T08:10:30.176Z,22.01
2017-09-10T08:12:35.591Z,22.00
2017-09-10T08:14:41.912Z,22.38
2017-09-10T08:16:51.986Z,22.71
2017-09-10T08:18:57.792Z,22.66
2017-09-10T08:21:04.510Z,22.52
2017-09-10T08:23:10.177Z,22.52
2017-09-10T08:25:18.927Z,22.34
2017-09-10T08:27:24.990Z,22.68
2017-09-10T08:29:31.463Z,22.72
2017-09-10T08:31:38.925Z,22.86
2017-09-10T08:33:46.599Z,22.75
2017-09-10T08:35:53.492Z,22.96
2017-09-10T08:37:59.976Z,22.91
2017-09-10T08:40:06.055Z,22.84
2017-09-10T08:42:15.797Z,22.53
2017-09-10T08:44:21.509Z,22.40
2017-09-10T08:46:28.085Z,22.39
2017-09-10T08:48:37.032Z,22.42
2017-09-10T08:50:47.637Z,22.63
2017-09-10T08:52:55.548Z,22.59
2017-09-10T08:55:03.815Z,22.62
2017-09-10T08:57:11.689Z,22.69
2017-09-10T08:59:17.790Z,22.72
2017-09-10T09:01:25.684Z,22.59
2017-09-10T09:03:31.739Z,22.68
2017-09-10T09:05:56.059Z,22.85
2017-09-10T09:08:21.826Z,23.05
2017-09-10T09:10:30.794Z,22.98
2017-09-10T09:12:37.675Z,23.01
2017-09-10T09:15:02.007Z,22.91
2017-09-10T09:17:45.565Z,22.91
2017-09-10T09:19:53.168Z,22.84
2017-09-10T09:21:58.986Z,22.65
2017-09-10T09:24:05.296Z,22.66
2017-09-10T09:26:13.517Z,22.69
2017-09-10T09:28:20.544Z,22.66
2017-09-10T09:30:26.587Z,22.79
2017-09-10T09:32:32.399Z,22.91
2017-09-10T09:34:39.276Z,22.97
2017-09-10T09:36:49.738Z,22.98
2017-09-10T09:38:55.416Z,23.08
2017-09-10T09:41:01.338Z,23.28
2017-09-10T09:43:07.512Z,23.18
2017-09-10T09:47:35.197Z,22.93
2017-09-10T09:49:43.978Z,22.90
2017-09-10T09:51:54.493Z,22.92
2017-09-10T09:54:08.550Z,23.00
2017-09-10T09:56:17.579Z,23.12
2017-09-10T09:58:23.451Z,23.01
2017-09-10T10:00:29.463Z,22.81
2017-09-10T10:02:34.820Z,22.92
2017-09-10T10:04:40.178Z,23.02
2017-09-10T10:06:45.400Z,22.96
2017-09-10T10:08:50.929Z,22.97
2017-09-10T10:10:59.875Z,23.00
2017-09-10T10:13:06.459Z,22.90
2017-09-10T10:15:14.989Z,22.80
2017-09-10T10:17:20.360Z,22.82
2017-09-10T10:19:27.152Z,23.01
2017-09-10T10:21:33.948Z,23.09
2017-09-10T10:23:41.042Z,22.95
2017-09-10T10:25:46.372Z,22.81
2017-09-10T10:27:52.109Z,22.92
2017-09-10T10:29:57.581Z,23.19
2017-09-10T10:32:03.210Z,23.28
2017-09-10T10:34:09.056Z,23.26
2017-09-10T10:36:17.261Z,23.18
2017-09-10T10:38:22.700Z,23.14
2017-09-10T10:40:31.409Z,23.53
2017-09-10T10:42:39.110Z,23.44
2017-09-10T10:44:50.965Z,23.60
2017-09-10T10:46:57.968Z,23.35
2017-09-10T10:49:04.157Z,23.31
2017-09-10T10:51:11.372Z,23.38
2017-09-10T10:53:17.124Z,23.27
2017-09-10T10:55:22.751Z,23.43
2017-09-10T10:57:28.762Z,23.38
2017-09-10T10:59:36.937Z,23.33
2017-09-10T11:01:44.158Z,23.60
2017-09-10T11:03:50.238Z,23.46
2017-09-10T11:05:56.135Z,23.51
2017-09-10T11:08:01.685Z,23.42
2017-09-10T11:10:08.838Z,23.50
2017-09-10T11:12:18.387Z,23.56
2017-09-10T11:14:24.045Z,23.54
2017-09-10T11:16:30.189Z,23.61
2017-09-10T11:18:40.273Z,23.34
2017-09-10T11:20:46.748Z,23.31
2017-09-10T11:22:56.152Z,23.19
2017-09-10T11:25:02.048Z,23.23
2017-09-10T11:27:08.009Z,23.62
2017-09-10T11:29:16.065Z,23.60
2017-09-10T11:31:22.144Z,23.48
2017-09-10T11:33:33.127Z,23.57
2017-09-10T11:35:40.092Z,23.55
2017-09-10T11:37:47.801Z,23.47
2017-09-10T11:39:53.287Z,23.58
2017-09-10T11:41:59.007Z,23.52
2017-09-10T11:44:06.174Z,23.31
2017-09-10T11:46:20.387Z,23.34
2017-09-10T11:48:36.073Z,23.46
2017-09-10T11:50:45.742Z,23.40
2017-09-10T11:52:51.166Z,23.39
2017-09-10T11:54:57.107Z,23.42
2017-09-10T11:57:02.960Z,23.57
2017-09-10T11:59:13.740Z,23.62
2017-09-10T12:01:19.733Z,23.66
2017-09-10T12:03:25.540Z,23.88
2017-09-10T12:05:32.259Z,23.74
2017-09-10T12:07:39.134Z,23.76
2017-09-10T12:09:45.948Z,23.69
2017-09-10T12:11:51.814Z,23.60
2017-09-10T12:13:57.449Z,23.74
2017-09-10T12:16:03.369Z,24.02
2017-09-10T12:18:08.978Z,24.78
2017-09-10T12:20:14.661Z,25.19
2017-09-10T12:22:20.608Z,25.58
2017-09-10T12:24:26.452Z,25.68
2017-09-10T12:26:33.333Z,25.13
2017-09-10T12:28:40.253Z,24.91
2017-09-10T12:30:48.519Z,24.81
2017-09-10T12:32:54.204Z,25.18
2017-09-10T12:35:00.381Z,24.97
2017-09-10T12:37:06.494Z,24.78
2017-09-10T12:39:15.130Z,24.58
2017-09-10T12:41:21.120Z,24.41
2017-09-10T12:43:26.791Z,24.27
2017-09-10T12:45:33.462Z,24.09
2017-09-10T12:47:41.191Z,24.01
2017-09-10T12:49:48.391Z,24.06
2017-09-10T12:51:54.489Z,25.72
2017-09-10T12:54:00.227Z,26.29
2017-09-10T12:56:06.989Z,25.07
2017-09-10T12:58:13.239Z,25.77
2017-09-10T13:00:20.580Z,26.83
2017-09-10T13:02:28.569Z,26.59
2017-09-10T13:04:42.750Z,25.66
2017-09-10T13:06:48.762Z,24.97
2017-09-10T13:08:55.270Z,24.73
2017-09-10T13:11:02.609Z,24.65
2017-09-10T13:13:08.801Z,24.84
2017-09-10T13:15:16.206Z,25.69
2017-09-10T13:17:21.939Z,24.87
2017-09-10T13:19:28.020Z,24.65
2017-09-10T13:21:35.095Z,24.51
2017-09-10T13:23:41.597Z,24.37
2017-09-10T13:25:50.489Z,24.23
2017-09-10T13:27:57.637Z,24.42
2017-09-10T13:30:03.217Z,24.39
2017-09-10T13:32:09.121Z,24.42
2017-09-10T13:34:14.914Z,24.49
2017-09-10T13:36:20.750Z,24.31
2017-09-10T13:38:26.337Z,24.28
2017-09-10T13:40:33.806Z,24.21
2017-09-10T13:42:41.114Z,24.36
2017-09-10T13:44:47.616Z,24.51
2017-09-10T13:46:53.196Z,26.26
2017-09-10T13:48:58.741Z,25.25
2017-09-10T13:51:05.245Z,24.54
2017-09-10T13:53:10.865Z,24.36
2017-09-10T13:55:18.321Z,24.38
2017-09-10T13:57:24.556Z,24.17
2017-09-10T13:59:32.214Z,23.99
2017-09-10T14:01:39.205Z,24.15
2017-09-10T14:03:49.889Z,26.25
2017-09-10T14:05:55.680Z,25.49
2017-09-10T14:08:04.008Z,24.72
2017-09-10T14:10:11.413Z,24.53
2017-09-10T14:12:17.850Z,24.59
2017-09-10T14:14:23.824Z,24.31
2017-09-10T14:16:30.289Z,24.31
2017-09-10T14:18:38.329Z,24.77
2017-09-10T14:20:46.349Z,24.45
2017-09-10T14:22:54.982Z,24.57
2017-09-10T14:25:00.689Z,24.52
2017-09-10T14:27:08.991Z,24.50
2017-09-10T14:29:14.682Z,24.39
2017-09-10T14:31:20.274Z,24.19
2017-09-10T14:33:26.275Z,24.90
2017-09-10T14:35:33.514Z,24.87
2017-09-10T14:37:40.356Z,24.80
2017-09-10T14:39:49.360Z,24.97
2017-09-10T14:41:56.755Z,25.70
2017-09-10T14:44:03.106Z,26.18
2017-09-10T14:46:09.779Z,26.17
2017-09-10T14:48:15.687Z,26.27
2017-09-10T14:50:21.522Z,26.34
2017-09-10T14:52:27.109Z,26.52
2017-09-10T14:54:33.904Z,26.63
2017-09-10T14:56:42.477Z,26.65
2017-09-10T14:58:48.860Z,26.56
2017-09-10T15:00:55.197Z,26.42
2017-09-10T15:03:01.842Z,26.50
2017-09-10T15:05:08.230Z,26.65
2017-09-10T15:07:17.734Z,26.89
2017-09-10T15:09:23.595Z,27.10
2017-09-10T15:11:29.790Z,27.13
2017-09-10T15:13:37.562Z,27.29
2017-09-10T15:15:46.957Z,26.89
2017-09-10T15:17:53.521Z,26.85
2017-09-10T15:20:00.830Z,27.01
2017-09-10T15:22:08.812Z,27.10
2017-09-10T15:24:14.848Z,27.08
2017-09-10T15:26:21.022Z,27.05
2017-09-10T15:28:27.373Z,27.15
2017-09-10T15:30:34.523Z,27.18
2017-09-10T15:32:40.983Z,27.13
2017-09-10T15:34:55.553Z,27.35
2017-09-10T15:37:01.108Z,27.24
2017-09-10T15:39:07.316Z,27.10
2017-09-10T15:41:15.978Z,26.74
2017-09-10T15:43:23.209Z,26.82
2017-09-10T15:45:28.977Z,26.92
2017-09-10T15:47:36.046Z,26.81
2017-09-10T15:49:41.605Z,26.81
2017-09-10T15:51:47.819Z,26.90
2017-09-10T15:53:53.174Z,26.88
2017-09-10T15:55:59.331Z,26.95
2017-09-10T15:58:05.341Z,26.48
2017-09-10T16:00:14.937Z,26.31
2017-09-10T16:02:21.876Z,26.70
2017-09-10T16:04:31.478Z,26.64
2017-09-10T16:06:39.662Z,26.32
2017-09-10T16:08:52.614Z,25.97
2017-09-10T16:10:59.121Z,25.95
2017-09-10T16:13:05.524Z,26.20
2017-09-10T16:15:12.591Z,26.21
2017-09-10T16:17:18.654Z,26.57
2017-09-10T16:19:24.853Z,26.25
2017-09-10T16:21:34.704Z,26.17
2017-09-10T16:23:42.473Z,26.38
2017-09-10T16:25:49.035Z,26.03
2017-09-10T16:27:54.438Z,26.32
2017-09-10T16:30:00.170Z,26.24
2017-09-10T16:32:12.863Z,26.18
2017-09-10T16:34:18.632Z,25.91
2017-09-10T16:36:24.605Z,25.80
2017-09-10T16:38:31.029Z,25.83
2017-09-10T16:40:38.718Z,25.85
2017-09-10T16:42:45.544Z,25.91
2017-09-10T16:44:51.563Z,25.90
2017-09-10T16:46:57.362Z,25.79
2017-09-10T16:49:03.184Z,25.57
2017-09-10T16:51:11.990Z,25.66
2017-09-10T16:53:18.188Z,25.52
2017-09-10T16:55:23.929Z,25.50
2017-09-10T16:57:30.070Z,25.38
2017-09-10T16:59:37.647Z,25.28
2017-09-10T17:01:46.311Z,25.25
2017-09-10T17:03:53.179Z,25.31
2017-09-10T17:05:58.786Z,25.03
2017-09-10T17:08:04.555Z,24.98
2017-09-10T17:10:10.225Z,24.91
2017-09-10T17:12:15.956Z,25.06
2017-09-10T17:14:21.978Z,24.86
2017-09-10T17:16:27.574Z,24.93
2017-09-10T17:18:34.433Z,24.89
2017-09-10T17:20:42.415Z,24.88
2017-09-10T17:22:51.098Z,24.99
2017-09-10T17:24:57.492Z,24.82
2017-09-10T17:27:03.478Z,24.63
2017-09-10T17:29:09.301Z,24.64
2017-09-10T17:31:19.554Z,24.63
2017-09-10T17:33:25.434Z,24.65
2017-09-10T17:35:31.803Z,24.59
2017-09-10T17:37:38.785Z,24.42
2017-09-10T17:39:46.906Z,24.60
2017-09-10T17:41:52.646Z,24.43
2017-09-10T17:43:58.358Z,24.22
2017-09-10T17:46:05.163Z,24.28
2017-09-10T17:48:17.883Z,24.17
2017-09-10T17:50:23.728Z,24.18
2017-09-10T17:52:30.362Z,24.17
2017-09-10T17:54:38.002Z,24.25
2017-09-10T17:56:46.623Z,24.35
2017-09-10T17:58:52.759Z,24.60
2017-09-10T18:00:58.481Z,24.59
2017-09-10T18:03:04.218Z,24.36
2017-09-10T18:05:10.266Z,24.06
2017-09-10T18:07:16.316Z,23.87
2017-09-10T18:09:23.296Z,23.87
2017-09-10T18:11:30.513Z,23.70
2017-09-10T18:13:37.816Z,23.75
2017-09-10T18:15:46.678Z,23.95
2017-09-10T18:17:54.398Z,23.99
2017-09-10T18:20:06.214Z,24.38
2017-09-10T18:22:15.544Z,24.41
2017-09-10T18:24:39.849Z,24.10
2017-09-10T18:27:03.766Z,24.28
2017-09-10T18:29:13.154Z,24.18
2017-09-10T18:31:19.372Z,23.94
2017-09-10T18:33:25.054Z,24.09
2017-09-10T18:35:31.678Z,24.11
2017-09-10T18:37:42.758Z,24.11
2017-09-10T18:39:52.500Z,23.82
2017-09-10T18:41:59.953Z,24.08
2017-09-10T18:44:07.614Z,24.02
2017-09-10T18:48:30.475Z,23.83
2017-09-10T18:51:24.135Z,24.05
2017-09-10T18:55:54.886Z,24.17
2017-09-10T18:58:29.097Z,24.10
2017-09-10T19:00:45.303Z,24.11
2017-09-10T19:03:27.286Z,24.13
2017-09-10T19:05:35.956Z,24.02
2017-09-10T19:08:04.885Z,24.02
2017-09-10T19:10:14.565Z,24.09
2017-09-10T19:12:32.652Z,24.21
2017-09-10T19:14:52.239Z,24.19
2017-09-10T19:16:59.053Z,24.09
2017-09-10T19:19:06.894Z,24.08
2017-09-10T19:21:17.140Z,24.10
2017-09-10T19:23:23.224Z,24.19
2017-09-10T19:25:31.027Z,24.24
2017-09-10T19:27:39.239Z,24.26
2017-09-10T19:29:51.031Z,24.00
2017-09-10T19:31:58.872Z,24.06
2017-09-10T19:34:09.626Z,24.08
2017-09-10T19:36:19.375Z,24.10
2017-09-10T19:38:26.342Z,24.18
2017-09-10T19:40:34.883Z,23.87
2017-09-10T19:42:42.144Z,23.89
2017-09-10T19:44:52.149Z,23.96
2017-09-10T19:46:58.822Z,23.98
2017-09-10T19:51:16.935Z,24.07
2017-09-10T19:53:24.221Z,24.01
2017-09-10T19:55:34.368Z,24.02
2017-09-10T19:57:41.274Z,23.90
2017-09-10T19:59:51.381Z,23.67
2017-09-10T20:01:59.462Z,23.82
2017-09-10T20:04:06.242Z,23.73
2017-09-10T20:06:15.947Z,23.61
2017-09-10T20:08:23.132Z,23.68
2017-09-10T20:10:29.591Z,23.91
2017-09-10T20:12:43.488Z,23.85
2017-09-10T20:14:53.723Z,23.86
2017-09-10T20:16:59.929Z,23.82
2017-09-10T20:19:06.742Z,23.84
2017-09-10T20:21:15.968Z,23.74
2017-09-10T20:23:22.189Z,23.61
2017-09-10T20:28:31.442Z,23.52
2017-09-10T20:30:38.373Z,23.48
2017-09-10T20:32:47.499Z,23.58
2017-09-10T20:35:55.636Z,23.73
2017-09-10T20:38:02.499Z,23.78
2017-09-10T20:40:08.499Z,23.64
2017-09-10T20:42:17.429Z,23.78
2017-09-10T20:44:24.132Z,23.72
2017-09-10T20:46:31.727Z,23.69
2017-09-10T20:48:39.478Z,23.67
2017-09-10T20:50:54.865Z,23.68
2017-09-10T20:53:00.998Z,23.56
2017-09-10T20:55:07.165Z,23.60
2017-09-10T20:57:15.180Z,23.71
2017-09-10T20:59:21.335Z,23.67
2017-09-10T21:01:28.512Z,23.50
2017-09-10T21:03:37.892Z,23.81
2017-09-10T21:05:45.135Z,23.79
2017-09-10T21:07:51.135Z,23.75
2017-09-10T21:09:57.186Z,23.84
2017-09-10T21:12:02.781Z,23.80
2017-09-10T21:14:09.279Z,23.87
2017-09-10T21:16:17.438Z,23.92
2017-09-10T21:18:23.279Z,23.72
2017-09-10T21:20:29.527Z,23.79
2017-09-10T21:22:37.390Z,23.86
2017-09-10T21:24:43.374Z,23.69
2017-09-10T21:26:48.958Z,23.84
2017-09-10T21:28:55.599Z,23.77
2017-09-10T21:31:02.044Z,23.62
2017-09-10T21:33:08.163Z,23.59
2017-09-10T21:35:17.329Z,23.65
2017-09-10T21:37:23.676Z,23.50
2017-09-10T21:39:30.190Z,23.52
2017-09-10T21:41:37.387Z,23.56
2017-09-10T21:43:43.651Z,23.53
2017-09-10T21:45:53.230Z,23.52
2017-09-10T21:47:59.735Z,23.40
2017-09-10T21:50:07.026Z,23.47
2017-09-10T21:52:17.535Z,23.39
2017-09-10T21:54:23.291Z,23.45
2017-09-10T21:56:29.931Z,23.40
2017-09-10T21:58:38.062Z,23.43
2017-09-10T22:00:47.610Z,23.57
2017-09-10T22:02:55.608Z,23.58
2017-09-10T22:05:01.941Z,23.51
2017-09-10T22:07:08.409Z,23.51
2017-09-10T22:09:15.694Z,23.42
2017-09-10T22:11:21.314Z,23.36
2017-09-10T22:13:27.185Z,23.32
2017-09-10T22:15:34.477Z,23.35
2017-09-10T22:17:42.131Z,23.34
2017-09-10T22:19:57.173Z,23.43
2017-09-10T22:22:03.999Z,23.28
2017-09-10T22:24:11.200Z,23.45
2017-09-10T22:28:54.497Z,23.29
2017-09-10T22:31:04.002Z,23.39
2017-09-10T22:33:13.260Z,23.39
2017-09-10T22:35:20.485Z,23.34
2017-09-10T22:37:27.112Z,23.43
2017-09-10T22:39:36.130Z,23.50
2017-09-10T22:41:43.267Z,23.43
2017-09-10T22:43:50.244Z,23.54
2017-09-10T22:45:56.978Z,23.43
2017-09-10T22:48:03.809Z,23.42
2017-09-10T22:50:12.651Z,23.52
2017-09-10T22:52:18.997Z,23.35
2017-09-10T22:54:25.470Z,23.31
2017-09-10T22:56:33.654Z,23.42
2017-09-10T22:58:41.994Z,23.52
2017-09-10T23:00:50.667Z,23.26
2017-09-10T23:02:56.533Z,23.36
2017-09-10T23:05:03.599Z,23.45
2017-09-10T23:07:12.356Z,23.31
2017-09-10T23:09:18.867Z,23.50
2017-09-10T23:11:25.773Z,23.43
2017-09-10T23:13:33.519Z,23.28
2017-09-10T23:15:41.539Z,23.32
2017-09-10T23:17:49.713Z,23.41
2017-09-10T23:19:56.840Z,23.41
2017-09-10T23:22:03.485Z,23.25
2017-09-10T23:24:13.657Z,23.13
2017-09-10T23:26:20.328Z,23.25
2017-09-10T23:28:26.723Z,23.38
2017-09-10T23:30:34.896Z,23.28
2017-09-10T23:32:42.860Z,23.36
2017-09-10T23:34:49.665Z,23.33
2017-09-10T23:38:20.628Z,23.38
2017-09-10T23:40:27.414Z,23.28
2017-09-10T23:42:35.225Z,23.29
2017-09-10T23:44:46.562Z,23.26
2017-09-10T23:46:55.632Z,23.39
2017-09-10T23:49:02.037Z,23.34
2017-09-10T23:51:11.887Z,23.41
2017-09-10T23:53:18.471Z,23.33
2017-09-10T23:55:25.182Z,23.43
2017-09-10T23:57:31.891Z,23.22
2017-09-10T23:59:39.140Z,23.40
